Time;durP1;ratioP1;P1;durP2;ratioP2;P2;SDS_P1;SDS_P2;PMS_P1;PMS_P2;Temp;Humidity;BMP_temperature;BMP_pressure;BME280_temperature;BME280_humidity;BME280_pressure;Samples;Min_cycle;Max_cycle;Signal;HPM_P1;HPM_P2
2023/05/19 00:00:18;;;;;;;4.40;2.80;;;;;;;17.46;57.46;98594.94;4942812;28;20116;-77
2023/05/19 00:02:44;;;;;;;3.22;2.60;;;;;;;17.44;57.30;98581.91;4942470;28;20391;-78
2023/05/19 00:05:11;;;;;;;3.80;2.75;;;;;;;17.46;57.26;98587.03;4942891;28;20038;-77
2023/05/19 00:07:37;;;;;;;5.13;2.77;;;;;;;17.46;57.17;98589.66;4942415;28;20133;-77
2023/05/19 00:10:03;;;;;;;3.63;2.63;;;;;;;17.46;57.46;98590.47;4958580;28;20411;-76
2023/05/19 00:12:29;;;;;;;3.17;2.67;;;;;;;17.44;57.43;98584.56;4958607;28;20038;-78
2023/05/19 00:14:55;;;;;;;5.57;2.80;;;;;;;17.45;57.57;98586.19;4942332;28;20121;-77
2023/05/19 00:17:20;;;;;;;3.90;2.60;;;;;;;17.44;57.82;98592.47;4975634;28;20074;-77
2023/05/19 00:19:46;;;;;;;4.25;3.00;;;;;;;17.39;57.57;98576.28;4942292;28;20035;-77
2023/05/19 00:22:13;;;;;;;3.55;2.75;;;;;;;17.35;57.64;98570.50;4958205;28;20043;-77
2023/05/19 00:24:38;;;;;;;3.72;2.70;;;;;;;17.41;57.59;98586.66;4958080;28;20101;-77
2023/05/19 00:27:04;;;;;;;4.13;2.72;;;;;;;17.40;57.59;98596.41;4942370;28;20046;-77
2023/05/19 00:29:29;;;;;;;4.40;2.80;;;;;;;17.37;57.70;98602.00;4938888;29;20110;-76
2023/05/19 00:31:55;;;;;;;3.22;2.63;;;;;;;17.35;57.70;98596.91;4939474;29;20260;-76
2023/05/19 00:34:20;;;;;;;4.15;2.80;;;;;;;17.37;57.63;98612.56;4923094;29;20462;-77
2023/05/19 00:36:46;;;;;;;4.57;2.80;;;;;;;17.34;57.66;98602.34;4938695;29;20047;-76
2023/05/19 00:39:11;;;;;;;5.70;3.17;;;;;;;17.31;57.42;98597.38;4954640;29;20384;-76
2023/05/19 00:41:37;;;;;;;5.07;2.40;;;;;;;17.32;57.43;98594.59;4938828;29;20494;-77
2023/05/19 00:44:02;;;;;;;3.50;3.05;;;;;;;17.30;57.47;98601.84;4938624;29;20047;-76
2023/05/19 00:46:29;;;;;;;4.63;3.00;;;;;;;17.26;57.51;98591.78;4923178;29;20105;-77
2023/05/19 00:48:54;;;;;;;3.90;2.75;;;;;;;17.28;57.26;98603.00;4938804;29;20027;-77
2023/05/19 00:51:21;;;;;;;3.60;2.90;;;;;;;17.26;57.44;98591.78;4921803;29;20050;-78
2023/05/19 00:53:48;;;;;;;4.40;2.92;;;;;;;17.23;57.76;98592.91;4938594;29;20039;-78
2023/05/19 00:56:14;;;;;;;6.28;3.00;;;;;;;17.21;57.67;98584.34;4922860;29;20043;-78
2023/05/19 00:58:39;;;;;;;4.93;2.85;;;;;;;17.22;57.69;98582.53;4954568;29;20530;-79
2023/05/19 01:01:06;;;;;;;5.38;3.03;;;;;;;17.22;57.69;98571.97;4937746;29;20075;-75
2023/05/19 01:03:34;;;;;;;5.60;2.75;;;;;;;17.18;57.74;98568.84;4938122;29;20101;-75
2023/05/19 01:06:06;;;;;;;5.53;3.15;;;;;;;17.16;57.58;98574.28;4938142;29;20043;-76
2023/05/19 01:08:37;;;;;;;4.65;3.05;;;;;;;17.13;57.72;98566.72;4923154;28;20047;-76
2023/05/19 01:11:03;;;;;;;5.18;2.92;;;;;;;17.08;57.87;98569.00;4938067;29;20163;-76
2023/05/19 01:13:29;;;;;;;6.47;2.85;;;;;;;17.10;57.86;98572.31;4937274;29;20043;-75
2023/05/19 01:16:17;;;;;;;5.25;3.30;;;;;;;17.10;57.70;98571.50;4937955;29;20074;-76
2023/05/19 01:18:54;;;;;;;5.18;2.90;;;;;;;17.08;57.74;98568.16;4922124;29;20039;-76
2023/05/19 01:21:57;;;;;;;6.25;3.20;;;;;;;17.07;57.65;98562.09;4938512;29;20495;-77
2023/05/19 01:24:33;;;;;;;5.10;3.28;;;;;;;17.04;57.60;98562.41;4955587;28;20036;-76
2023/05/19 01:27:27;;;;;;;4.93;3.10;;;;;;;17.04;57.77;98566.88;4921909;29;20039;-77
2023/05/19 01:30:32;;;;;;;3.30;2.70;;;;;;;17.02;57.79;98569.66;4863626;29;20462;-77
2023/05/19 01:33:01;;;;;;;4.43;3.42;;;;;;;17.00;57.66;98569.00;4861800;29;20044;-77
2023/05/19 01:35:26;;;;;;;;;;;;;;;17.00;57.84;98563.75;4847382;29;20053;-76
2023/05/19 01:37:58;;;;;;;7.05;3.47;;;;;;;16.96;57.72;98573.75;4846525;29;19976;-77
2023/05/19 01:40:24;;;;;;;7.30;3.55;;;;;;;16.96;57.71;98573.75;4862008;29;20434;-77
2023/05/19 01:42:51;;;;;;;7.85;3.30;;;;;;;16.96;57.58;98573.75;4846289;29;20072;-76
2023/05/19 01:45:17;;;;;;;4.32;3.20;;;;;;;16.96;57.87;98575.59;4861807;29;20113;-77
2023/05/19 01:47:51;;;;;;;4.75;3.38;;;;;;;16.96;57.85;98583.50;4830720;29;20041;-76
2023/05/19 01:50:16;;;;;;;7.38;3.60;;;;;;;16.96;57.66;98589.59;4846914;29;20204;-76
2023/05/19 01:52:41;;;;;;;4.75;3.10;;;;;;;16.93;57.72;98589.91;4845859;29;20041;-77
2023/05/19 01:55:08;;;;;;;6.60;3.47;;;;;;;16.96;57.43;98583.50;4846293;29;20076;-76
2023/05/19 01:58:05;;;;;;;4.53;3.35;;;;;;;16.97;57.78;98591.25;4846167;29;20052;-76
2023/05/19 02:00:39;;;;;;;5.97;3.47;;;;;;;16.97;57.53;98598.34;4803484;29;20049;-76
2023/05/19 02:03:17;;;;;;;5.07;3.65;;;;;;;16.93;57.54;98589.91;4803468;29;20046;-76
2023/05/19 02:05:58;;;;;;;4.35;3.50;;;;;;;16.97;57.50;98599.16;4807888;29;20112;-76
2023/05/19 02:08:29;;;;;;;5.97;3.72;;;;;;;16.96;57.82;98609.84;4861288;29;20037;-76
2023/05/19 02:11:18;;;;;;;4.15;3.30;;;;;;;16.98;57.52;98616.63;4874373;29;20461;-76
2023/05/19 02:13:43;;;;;;;4.10;3.22;;;;;;;16.98;57.36;98615.78;4878473;29;20500;-76
2023/05/19 02:16:09;;;;;;;5.65;3.72;;;;;;;16.97;57.54;98622.06;4878485;29;20061;-76
2023/05/19 02:18:35;;;;;;;4.93;3.13;;;;;;;16.98;57.53;98640.38;4879636;29;20068;-76
2023/05/19 02:21:01;;;;;;;4.95;3.63;;;;;;;16.96;57.54;98634.41;4879772;29;20060;-76
2023/05/19 02:23:27;;;;;;;4.13;3.50;;;;;;;17.01;57.32;98647.09;4879539;29;20036;-79
2023/05/19 02:25:52;;;;;;;4.40;3.47;;;;;;;17.02;57.42;98658.50;4894811;29;20123;-76
2023/05/19 02:28:18;;;;;;;5.97;3.75;;;;;;;17.02;57.74;98661.97;4879503;29;20408;-76
2023/05/19 02:30:43;;;;;;;7.05;3.88;;;;;;;16.97;57.57;98654.53;4895206;29;20120;-76
2023/05/19 02:33:10;;;;;;;4.63;3.60;;;;;;;17.02;57.62;98655.88;4878519;29;20421;-76
2023/05/19 02:35:36;;;;;;;6.65;3.60;;;;;;;16.99;57.71;98659.63;4879061;29;20045;-77
2023/05/19 02:38:01;;;;;;;8.77;3.35;;;;;;;16.99;57.80;98664.91;4939150;28;20049;-77
2023/05/19 02:40:27;;;;;;;5.75;3.40;;;;;;;16.97;57.93;98667.72;4923762;28;20183;-76
2023/05/19 02:42:52;;;;;;;6.60;3.33;;;;;;;16.96;58.01;98663.41;4972175;28;20093;-76
2023/05/19 02:45:18;;;;;;;4.38;3.28;;;;;;;16.95;58.17;98672.31;4955369;28;20089;-76
2023/05/19 02:47:43;;;;;;;5.20;3.35;;;;;;;16.94;58.14;98660.13;4971951;28;20030;-76
2023/05/19 02:50:09;;;;;;;4.63;3.42;;;;;;;16.92;57.93;98669.16;4972354;28;20046;-76
2023/05/19 02:52:34;;;;;;;4.90;3.75;;;;;;;16.92;58.32;98674.44;4954374;28;20481;-76
2023/05/19 02:55:00;;;;;;;6.82;3.30;;;;;;;16.90;58.22;98666.69;4972784;28;20554;-75
2023/05/19 02:57:25;;;;;;;5.70;3.65;;;;;;;16.85;58.25;98662.84;4939460;28;20494;-75
2023/05/19 02:59:51;;;;;;;4.07;3.20;;;;;;;16.86;58.10;98665.38;4955916;28;20035;-76
2023/05/19 03:02:17;;;;;;;5.13;3.35;;;;;;;16.89;58.24;98665.03;4939869;28;20545;-76
2023/05/19 03:04:42;;;;;;;5.28;3.65;;;;;;;16.89;58.20;98658.94;4956142;28;20182;-75
2023/05/19 03:07:15;;;;;;;4.95;3.35;;;;;;;16.97;57.83;98664.25;4923615;28;20039;-75
2023/05/19 03:09:40;;;;;;;4.65;3.67;;;;;;;17.02;57.77;98663.78;4925689;28;20043;-75
2023/05/19 03:12:06;;;;;;;4.85;3.78;;;;;;;16.99;57.63;98657.81;4973235;28;20039;-76
2023/05/19 03:14:33;;;;;;;5.15;3.50;;;;;;;17.23;57.10;98656.22;4924152;28;20401;-76
2023/05/19 03:16:59;;;;;;;5.13;3.72;;;;;;;17.40;56.67;98666.84;4923663;28;20107;-76
2023/05/19 03:19:25;;;;;;;6.13;4.10;;;;;;;17.43;56.42;98662.06;4973030;28;20031;-75
2023/05/19 03:21:51;;;;;;;4.50;3.63;;;;;;;17.68;55.77;98665.53;4939944;28;20030;-77
2023/05/19 03:24:17;;;;;;;5.40;4.05;;;;;;;17.62;55.69;98653.00;4955277;28;20426;-74
2023/05/19 03:26:42;;;;;;;6.07;3.85;;;;;;;17.65;55.77;98662.41;4939613;28;20046;-79
2023/05/19 03:29:08;;;;;;;5.35;4.07;;;;;;;17.78;55.58;98664.56;4939888;28;20047;-75
2023/05/19 03:31:33;;;;;;;4.63;3.85;;;;;;;17.73;55.65;98654.47;4955388;28;20039;-76
2023/05/19 03:33:58;;;;;;;7.40;3.97;;;;;;;17.81;55.37;98669.50;4939271;28;20084;-76
2023/05/19 03:36:25;;;;;;;10.48;4.05;;;;;;;17.87;56.13;98671.50;4955697;28;20461;-78
2023/05/19 03:38:50;;;;;;;5.05;4.13;;;;;;;17.96;55.45;98670.50;4976006;28;20039;-77
2023/05/19 03:41:16;;;;;;;6.05;3.10;;;;;;;18.27;56.73;98662.72;4942372;28;20054;-79
2023/05/19 03:43:41;;;;;;;7.45;3.63;;;;;;;18.94;54.91;98669.47;4942222;28;20047;-76
2023/05/19 03:46:06;;;;;;;9.43;2.92;;;;;;;19.85;55.81;98669.75;4958743;28;20123;-70
2023/05/19 03:48:32;;;;;;;14.23;3.13;;;;;;;20.88;53.76;98677.97;4975905;28;20043;-73
2023/05/19 03:50:58;;;;;;;6.90;2.60;;;;;;;21.82;51.43;98671.88;4937999;29;20354;-73
2023/05/19 03:53:23;;;;;;;7.78;2.55;;;;;;;22.74;48.73;98679.91;4955165;28;20479;-75
2023/05/19 03:55:49;;;;;;;3.70;2.60;;;;;;;23.54;47.17;98676.69;4960912;28;20046;-71
2023/05/19 03:58:14;;;;;;;8.95;2.60;;;;;;;24.33;45.22;98678.56;4956465;29;20495;-71
2023/05/19 04:00:41;;;;;;;7.45;2.65;;;;;;;25.16;43.31;98685.13;4956249;29;20039;-74
2023/05/19 04:03:07;;;;;;;7.50;2.40;;;;;;;25.97;41.35;98680.94;4922661;29;20050;-74
2023/05/19 04:05:33;;;;;;;7.13;2.45;;;;;;;26.69;39.68;98671.63;4955771;29;20031;-76
2023/05/19 04:07:58;;;;;;;6.70;2.72;;;;;;;27.35;38.26;98669.19;4922893;29;20093;-76
2023/05/19 04:10:24;;;;;;;11.25;3.08;;;;;;;27.91;37.11;98669.78;4939220;29;20439;-76
2023/05/19 04:12:49;;;;;;;6.47;2.55;;;;;;;28.21;36.47;98666.22;4939043;29;20075;-78
2023/05/19 04:15:15;;;;;;;11.30;3.00;;;;;;;27.30;37.62;98671.72;4923207;29;20051;-73
2023/05/19 04:17:41;;;;;;;17.27;2.90;;;;;;;26.58;39.01;98681.19;4922611;29;20051;-79
2023/05/19 04:20:06;;;;;;;8.40;2.90;;;;;;;26.05;39.22;98682.53;4922812;29;20059;-78
2023/05/19 04:22:32;;;;;;;11.55;3.35;;;;;;;25.55;40.02;98667.25;4939599;29;20040;-80
2023/05/19 04:24:58;;;;;;;9.27;3.15;;;;;;;25.10;41.19;98684.13;4922358;29;20047;-84
2023/05/19 04:27:26;;;;;;;6.95;2.97;;;;;;;24.76;42.51;98687.13;4938889;29;20047;-84
2023/05/19 04:29:52;;;;;;;6.55;3.22;;;;;;;24.49;43.07;98692.50;4939302;29;20086;-80
2023/05/19 04:32:17;;;;;;;13.55;3.50;;;;;;;24.23;43.79;98691.53;4922782;29;20043;-78
2023/05/19 04:34:46;;;;;;;11.20;3.30;;;;;;;24.04;43.66;98690.50;4922626;29;20400;-82
2023/05/19 04:37:12;;;;;;;4.53;3.08;;;;;;;23.85;43.79;98694.81;4922690;29;20446;-82
2023/05/19 04:39:42;;;;;;;7.55;3.22;;;;;;;24.65;42.26;98692.06;4922439;29;20110;-82
2023/05/19 04:42:09;;;;;;;8.38;3.55;;;;;;;25.76;39.83;98684.81;4938694;29;20046;-80
2023/05/19 04:44:36;;;;;;;6.45;3.70;;;;;;;26.10;39.25;98693.41;4957268;28;20098;-80
2023/05/19 04:47:04;;;;;;;7.07;3.30;;;;;;;26.48;38.38;98697.78;4942016;28;20050;-84
2023/05/19 04:49:30;;;;;;;;;;;;;;;26.22;39.10;98700.69;4957739;28;20043;-83
2023/05/19 04:51:55;;;;;;;8.60;3.80;;;;;;;25.94;39.31;98700.06;4956704;28;19918;-80
2023/05/19 04:54:21;;;;;;;5.88;3.40;;;;;;;25.82;40.10;98708.00;4975503;28;20474;-79
2023/05/19 04:56:46;;;;;;;4.50;3.50;;;;;;;26.66;38.19;98709.56;4957518;28;20039;-81
2023/05/19 04:59:12;;;;;;;6.38;3.30;;;;;;;26.41;38.96;98698.88;4974616;28;20043;-77
2023/05/19 05:01:39;;;;;;;6.53;3.60;;;;;;;27.86;36.33;98705.34;4955444;28;20035;-78
2023/05/19 05:04:05;;;;;;;5.32;3.30;;;;;;;28.80;34.87;98719.91;4939964;28;20042;-79
2023/05/19 05:06:31;;;;;;;5.25;3.40;;;;;;;29.61;33.09;98717.19;4941267;28;20395;-78
2023/05/19 05:08:56;;;;;;;5.30;3.00;;;;;;;30.57;31.78;98716.34;4926215;28;20050;-78
2023/05/19 05:11:22;;;;;;;6.35;3.10;;;;;;;31.65;30.27;98723.03;4925803;28;20046;-79
2023/05/19 05:13:48;;;;;;;4.15;3.10;;;;;;;32.42;29.42;98714.75;4925733;28;20043;-78
2023/05/19 05:16:14;;;;;;;5.97;2.92;;;;;;;32.97;28.26;98724.25;4941575;28;20051;-78
2023/05/19 05:18:40;;;;;;;5.05;3.10;;;;;;;32.92;28.65;98707.97;4957549;28;20140;-78
2023/05/19 05:21:06;;;;;;;5.38;3.00;;;;;;;33.43;28.05;98728.16;4941764;28;20054;-77
2023/05/19 05:23:32;;;;;;;6.38;2.83;;;;;;;34.36;27.01;98734.47;4925485;28;20039;-79
2023/05/19 05:25:58;;;;;;;4.80;2.60;;;;;;;35.04;26.09;98735.94;4957360;28;20042;-79
2023/05/19 05:28:23;;;;;;;4.65;3.03;;;;;;;35.66;25.38;98728.25;4957104;28;20189;-78
2023/05/19 05:30:49;;;;;;;4.53;2.83;;;;;;;36.31;24.54;98728.06;4957364;28;20129;-78
2023/05/19 05:33:15;;;;;;;5.00;2.90;;;;;;;36.90;23.79;98728.78;4925655;28;20469;-79
2023/05/19 05:35:40;;;;;;;5.63;3.03;;;;;;;37.45;23.53;98735.72;4925660;28;20122;-78
2023/05/19 05:38:06;;;;;;;3.97;2.50;;;;;;;37.74;23.07;98729.31;4925295;28;20133;-78
2023/05/19 05:40:32;;;;;;;6.55;2.75;;;;;;;38.06;22.81;98744.03;4925543;28;20043;-79
2023/05/19 05:42:58;;;;;;;5.35;2.80;;;;;;;38.39;22.51;98746.75;4956647;28;20043;-79
2023/05/19 05:45:23;;;;;;;4.40;2.78;;;;;;;38.71;22.14;98746.72;4924613;28;20030;-77
2023/05/19 05:47:49;;;;;;;4.85;2.70;;;;;;;39.10;21.87;98751.97;4937525;29;20086;-80
2023/05/19 05:50:15;;;;;;;5.68;2.40;;;;;;;39.35;21.71;98754.13;4952109;29;20117;-78
2023/05/19 05:52:43;;;;;;;7.75;2.92;;;;;;;39.56;21.49;98748.25;4922115;29;20495;-78
2023/05/19 05:55:09;;;;;;;5.80;2.90;;;;;;;39.76;21.46;98753.22;4968123;28;20031;-78
2023/05/19 05:57:36;;;;;;;4.00;2.78;;;;;;;39.96;21.19;98762.84;4940323;28;20053;-81
2023/05/19 06:00:06;;;;;;;4.20;2.50;;;;;;;40.10;21.22;98757.31;4940098;28;20043;-80
2023/05/19 06:02:32;;;;;;;5.80;2.53;;;;;;;40.23;20.97;98754.81;4926000;28;20039;-78
2023/05/19 06:04:57;;;;;;;4.95;2.88;;;;;;;40.39;20.92;98763.41;4940005;28;20395;-81
2023/05/19 06:07:23;;;;;;;5.35;2.65;;;;;;;40.49;20.94;98765.91;4924876;28;20053;-78
2023/05/19 06:09:48;;;;;;;5.45;2.80;;;;;;;40.52;20.74;98762.56;4973792;28;20038;-79
2023/05/19 06:12:14;;;;;;;6.68;2.85;;;;;;;40.56;20.52;98762.72;4924670;28;20047;-78
2023/05/19 06:14:39;;;;;;;8.10;3.00;;;;;;;40.64;20.50;98770.97;4956410;28;20039;-78
2023/05/19 06:17:05;;;;;;;3.08;2.67;;;;;;;40.61;20.58;98763.41;4956485;28;20078;-79
2023/05/19 06:19:30;;;;;;;7.20;3.17;;;;;;;40.67;20.62;98762.13;4940413;28;20034;-78
2023/05/19 06:21:56;;;;;;;7.32;3.00;;;;;;;40.69;20.47;98762.63;4956581;28;20046;-80
2023/05/19 06:24:21;;;;;;;5.80;3.25;;;;;;;40.65;20.40;98767.09;4940344;28;20035;-82
2023/05/19 06:26:47;;;;;;;6.00;3.10;;;;;;;40.67;20.91;98773.06;4925133;28;20050;-79
2023/05/19 06:29:12;;;;;;;7.20;3.50;;;;;;;40.67;20.55;98777.72;4973730;28;20070;-78
2023/05/19 06:31:38;;;;;;;7.15;3.47;;;;;;;40.66;20.46;98771.47;4924248;28;20054;-79
2023/05/19 06:34:03;;;;;;;6.40;3.47;;;;;;;40.71;20.69;98778.72;4924553;28;20479;-77
2023/05/19 06:36:29;;;;;;;5.95;3.53;;;;;;;40.63;20.78;98766.63;4940720;28;20047;-80
2023/05/19 06:38:55;;;;;;;4.78;3.20;;;;;;;40.56;20.81;98777.19;4924808;28;20077;-80
2023/05/19 06:41:20;;;;;;;5.63;3.58;;;;;;;40.54;20.99;98767.72;4940668;28;20045;-78
2023/05/19 06:43:46;;;;;;;5.43;3.38;;;;;;;40.53;21.03;98777.81;4940700;28;20174;-79
2023/05/19 06:46:11;;;;;;;5.32;3.40;;;;;;;40.49;20.87;98774.94;4956798;28;20073;-77
2023/05/19 06:48:37;;;;;;;5.07;3.25;;;;;;;40.46;20.99;98772.03;4940083;28;20108;-77
2023/05/19 06:51:03;;;;;;;6.95;3.67;;;;;;;40.44;20.87;98779.75;4924419;28;20045;-77
2023/05/19 06:53:29;;;;;;;4.85;3.40;;;;;;;40.40;21.23;98779.50;4940790;28;20042;-78
2023/05/19 06:55:54;;;;;;;6.05;3.60;;;;;;;40.30;21.24;98788.00;4924549;28;20542;-79
2023/05/19 06:58:20;;;;;;;5.97;3.47;;;;;;;40.27;21.29;98786.69;4939815;28;20043;-80
2023/05/19 07:00:45;;;;;;;7.07;3.70;;;;;;;40.22;21.19;98788.75;4940387;28;20073;-78
2023/05/19 07:03:11;;;;;;;6.72;3.67;;;;;;;40.18;21.27;98785.03;4940216;28;20042;-77
2023/05/19 07:05:36;;;;;;;7.75;3.60;;;;;;;40.12;21.23;98779.69;4942793;28;20050;-78
2023/05/19 07:08:03;;;;;;;5.95;3.67;;;;;;;40.07;21.53;98800.88;4940848;28;20100;-78
2023/05/19 07:10:28;;;;;;;7.18;3.65;;;;;;;39.97;21.66;98789.06;4940558;28;20043;-78
2023/05/19 07:12:53;;;;;;;7.35;3.88;;;;;;;39.66;22.09;98791.69;4944324;28;20039;-79
2023/05/19 07:15:19;;;;;;;11.25;3.80;;;;;;;39.34;22.21;98789.94;4944487;28;20577;-78
2023/05/19 07:17:44;;;;;;;8.20;4.15;;;;;;;39.26;22.09;98792.25;4940269;29;20055;-79
2023/05/19 07:20:10;;;;;;;8.30;3.88;;;;;;;39.22;22.51;98794.00;4940685;29;20419;-79
2023/05/19 07:22:38;;;;;;;8.32;3.97;;;;;;;39.17;22.31;98796.84;4941305;29;20157;-79
2023/05/19 07:25:05;;;;;;;7.75;3.88;;;;;;;39.17;22.52;98796.84;4941244;29;20606;-81
2023/05/19 07:27:30;;;;;;;4.72;3.75;;;;;;;39.14;22.59;98781.09;4941074;29;20038;-80
2023/05/19 07:29:56;;;;;;;12.20;3.97;;;;;;;39.09;22.59;98794.81;4940946;29;20039;-79
2023/05/19 07:32:21;;;;;;;6.20;3.67;;;;;;;39.08;22.55;98802.19;4940885;29;20427;-78
2023/05/19 07:34:47;;;;;;;9.32;4.18;;;;;;;38.98;22.84;98805.09;4924918;29;20495;-80
2023/05/19 07:37:12;;;;;;;7.50;4.10;;;;;;;38.71;23.12;98801.28;4924560;29;20047;-80
2023/05/19 07:39:38;;;;;;;6.22;3.92;;;;;;;38.62;23.09;98800.34;4940475;29;20027;-80
2023/05/19 07:42:04;;;;;;;5.72;4.15;;;;;;;38.46;23.00;98799.78;4940842;29;20051;-80
2023/05/19 07:44:30;;;;;;;7.63;4.20;;;;;;;38.49;23.12;98804.66;4940421;29;20090;-79
2023/05/19 07:46:56;;;;;;;7.65;3.83;;;;;;;38.35;23.57;98807.34;4922939;29;20047;-78
2023/05/19 07:49:22;;;;;;;5.35;3.83;;;;;;;38.22;23.44;98805.38;4923676;29;20066;-79
2023/05/19 07:51:47;;;;;;;6.20;3.85;;;;;;;38.13;23.49;98812.56;4923556;29;20045;-78
2023/05/19 07:54:13;;;;;;;8.98;3.80;;;;;;;38.10;23.66;98816.72;4939923;29;20047;-78
2023/05/19 07:56:38;;;;;;;7.63;4.30;;;;;;;37.93;23.90;98813.72;4924502;29;20046;-77
2023/05/19 07:59:04;;;;;;;9.27;4.13;;;;;;;37.83;24.04;98810.03;4940519;29;20035;-80
2023/05/19 08:01:31;;;;;;;7.65;3.83;;;;;;;37.86;23.91;98819.56;4920095;29;20050;-80
2023/05/19 08:03:57;;;;;;;7.20;4.05;;;;;;;37.85;23.96;98808.94;4919969;29;20055;-78
2023/05/19 08:06:24;;;;;;;7.00;3.95;;;;;;;37.85;24.10;98804.31;4920557;29;20047;-78
2023/05/19 08:08:49;;;;;;;8.30;4.03;;;;;;;37.90;24.26;98822.50;4936691;29;20122;-79
2023/05/19 08:11:15;;;;;;;8.85;4.18;;;;;;;37.88;24.02;98814.59;4927458;29;20126;-80
2023/05/19 08:13:40;;;;;;;9.88;3.75;;;;;;;37.83;23.86;98811.97;4924029;29;20495;-79
2023/05/19 08:16:06;;;;;;;7.72;3.90;;;;;;;37.57;24.52;98811.50;4942308;28;20062;-81
2023/05/19 08:18:31;;;;;;;6.82;3.88;;;;;;;37.61;24.35;98818.78;4943395;28;20034;-80
2023/05/19 08:20:57;;;;;;;6.45;3.72;;;;;;;37.58;24.63;98827.53;4940807;28;20129;-79
2023/05/19 08:23:23;;;;;;;7.60;3.80;;;;;;;37.53;24.77;98840.41;4923417;29;20043;-78
2023/05/19 08:25:48;;;;;;;8.50;3.53;;;;;;;37.55;24.68;98827.31;4908599;29;20071;-81
2023/05/19 08:28:14;;;;;;;9.30;3.88;;;;;;;37.52;24.83;98831.44;4939519;29;20039;-78
2023/05/19 08:30:40;;;;;;;7.22;4.20;;;;;;;37.46;24.76;98825.25;4956991;28;20035;-77
2023/05/19 08:33:05;;;;;;;5.78;3.70;;;;;;;37.49;24.92;98823.84;4939763;29;20419;-79
2023/05/19 08:35:31;;;;;;;6.20;3.90;;;;;;;37.46;24.62;98816.25;4939693;29;20039;-79
2023/05/19 08:37:56;;;;;;;7.43;3.80;;;;;;;37.48;25.15;98819.53;4916265;29;20410;-77
2023/05/19 08:40:22;;;;;;;6.63;3.83;;;;;;;37.46;24.84;98819.81;4922872;29;20082;-80
2023/05/19 08:42:48;;;;;;;8.15;3.83;;;;;;;37.47;24.92;98835.03;4923425;29;20139;-79
2023/05/19 08:45:13;;;;;;;8.95;4.05;;;;;;;37.46;25.06;98821.69;4922921;29;20071;-81
2023/05/19 08:47:40;;;;;;;7.53;3.78;;;;;;;37.41;25.07;98838.91;4939438;29;20039;-80
2023/05/19 08:50:08;;;;;;;6.45;3.53;;;;;;;37.41;25.20;98829.94;4922249;29;20039;-81
2023/05/19 08:52:48;;;;;;;7.53;3.50;;;;;;;37.38;25.17;98827.81;4927279;28;20035;-81
2023/05/19 08:55:27;;;;;;;6.97;3.65;;;;;;;37.32;24.84;98832.50;4923705;29;20126;-78
2023/05/19 08:57:53;;;;;;;5.07;3.28;;;;;;;37.21;25.19;98844.56;4923900;29;20510;-79
2023/05/19 09:00:19;;;;;;;8.15;3.75;;;;;;;36.89;25.59;98838.66;4938810;29;20066;-82
2023/05/19 09:02:46;;;;;;;4.88;3.63;;;;;;;36.95;25.50;98839.44;4923903;29;20039;-78
2023/05/19 09:05:15;;;;;;;7.90;3.60;;;;;;;37.01;25.76;98842.94;4923062;29;20039;-82
2023/05/19 09:07:42;;;;;;;6.65;3.45;;;;;;;37.01;25.98;98853.81;4939194;29;20043;-80
2023/05/19 09:10:07;;;;;;;6.45;3.63;;;;;;;36.96;25.82;98851.94;4924235;29;20114;-78
2023/05/19 09:12:34;;;;;;;6.15;3.80;;;;;;;36.87;25.81;98845.50;4923387;29;20495;-81
2023/05/19 09:15:00;;;;;;;5.63;3.75;;;;;;;36.86;26.00;98846.59;4923133;29;20126;-79
2023/05/19 09:17:25;;;;;;;5.90;3.30;;;;;;;36.78;26.25;98841.78;4922606;29;20054;-78
2023/05/19 09:19:51;;;;;;;6.00;3.60;;;;;;;36.72;26.31;98849.16;4907158;29;20487;-78
2023/05/19 09:22:18;;;;;;;5.78;3.55;;;;;;;36.71;26.27;98851.06;4923084;29;20070;-79
2023/05/19 09:24:43;;;;;;;6.43;3.70;;;;;;;36.57;26.58;98850.13;4923120;29;20487;-78
2023/05/19 09:27:09;;;;;;;5.38;3.92;;;;;;;36.54;26.33;98848.78;4907019;29;20082;-79
2023/05/19 09:29:35;;;;;;;6.45;3.83;;;;;;;36.47;26.25;98853.75;4938373;29;20043;-83
2023/05/19 09:32:04;;;;;;;6.88;4.00;;;;;;;36.30;26.66;98864.22;4925410;28;20483;-78
2023/05/19 09:34:30;;;;;;;4.70;3.53;;;;;;;36.29;26.69;98863.38;4941618;28;20141;-79
2023/05/19 09:36:56;;;;;;;6.03;3.80;;;;;;;36.17;26.75;98857.50;4957343;28;20479;-82
2023/05/19 09:39:22;;;;;;;4.47;3.58;;;;;;;36.09;27.01;98871.66;4924610;28;20066;-81
2023/05/19 09:41:55;;;;;;;7.20;3.65;;;;;;;36.01;26.74;98868.47;4925302;28;20066;-80
2023/05/19 09:44:22;;;;;;;6.43;3.70;;;;;;;35.91;26.80;98865.78;4925485;28;20569;-81
2023/05/19 09:46:52;;;;;;;8.30;3.70;;;;;;;35.77;26.69;98859.38;4942172;28;20038;-80
2023/05/19 09:49:25;;;;;;;5.63;3.90;;;;;;;35.60;27.01;98857.00;4942043;28;20049;-79
2023/05/19 09:52:02;;;;;;;7.43;3.63;;;;;;;35.41;27.17;98854.91;4925461;28;20397;-80
2023/05/19 09:54:28;;;;;;;;;;;;;;;35.23;27.92;98860.91;4941984;28;20039;-79
2023/05/19 09:57:04;;;;;;;7.28;3.65;;;;;;;35.08;27.80;98862.59;4940983;28;19914;-79
2023/05/19 09:59:29;;;;;;;5.18;3.85;;;;;;;34.93;27.91;98863.44;4940677;28;20574;-83
2023/05/19 10:01:56;;;;;;;4.97;3.55;;;;;;;34.74;28.75;98855.06;4940598;28;20035;-78
2023/05/19 10:04:23;;;;;;;7.82;3.75;;;;;;;34.58;28.67;98856.13;4940291;28;20054;-79
2023/05/19 10:06:54;;;;;;;6.93;3.78;;;;;;;34.42;28.70;98866.97;4956577;28;20117;-78
2023/05/19 10:09:26;;;;;;;7.05;3.90;;;;;;;34.28;28.94;98856.94;4941919;28;20035;-77
2023/05/19 10:11:54;;;;;;;6.60;3.60;;;;;;;34.16;28.92;98855.28;4940765;28;20077;-78
2023/05/19 10:14:31;;;;;;;5.68;3.42;;;;;;;33.99;29.49;98844.69;4941278;28;20434;-80
2023/05/19 10:16:57;;;;;;;6.10;4.03;;;;;;;33.88;29.33;98856.59;4956076;28;20078;-78
2023/05/19 10:19:25;;;;;;;5.53;3.70;;;;;;;33.72;29.45;98855.75;4957403;28;20035;-79
2023/05/19 10:21:50;;;;;;;9.45;4.13;;;;;;;33.56;29.70;98841.31;4925193;28;20039;-78
2023/05/19 10:24:17;;;;;;;5.10;3.40;;;;;;;33.41;29.21;98849.38;4940916;29;20051;-77
2023/05/19 10:26:44;;;;;;;4.85;3.50;;;;;;;33.23;29.63;98840.66;4917197;29;20094;-77
2023/05/19 10:29:10;;;;;;;7.78;3.80;;;;;;;33.12;30.03;98857.88;4936829;29;20487;-78
2023/05/19 10:31:36;;;;;;;5.95;4.00;;;;;;;32.98;29.45;98849.41;4905884;29;20043;-80
2023/05/19 10:34:20;;;;;;;6.60;3.65;;;;;;;32.77;29.97;98845.78;4937481;29;20043;-78
2023/05/19 10:37:02;;;;;;;6.75;4.00;;;;;;;32.66;30.23;98839.47;4938938;29;20039;-78
2023/05/19 10:39:30;;;;;;;6.35;3.30;;;;;;;32.66;30.11;98833.25;4921300;29;20045;-77
2023/05/19 10:42:28;;;;;;;6.22;3.83;;;;;;;32.58;30.13;98838.03;4906190;29;20047;-79
2023/05/19 10:45:13;;;;;;;6.32;3.85;;;;;;;32.42;30.67;98831.72;4953725;28;20090;-76
2023/05/19 10:47:41;;;;;;;5.55;3.85;;;;;;;32.38;30.73;98832.47;4926870;29;20060;-78
2023/05/19 10:50:07;;;;;;;4.55;3.70;;;;;;;32.22;30.93;98832.34;4925050;29;20506;-77
2023/05/19 10:52:36;;;;;;;7.10;3.83;;;;;;;32.06;31.29;98828.66;4909286;29;20035;-78
2023/05/19 10:55:03;;;;;;;6.28;3.78;;;;;;;31.92;31.30;98833.66;4941435;29;20112;-77
2023/05/19 10:57:31;;;;;;;5.78;4.10;;;;;;;31.84;31.63;98828.72;4941619;29;20487;-77
2023/05/19 10:59:56;;;;;;;;;;;;;;;31.73;31.70;98833.19;4926217;29;20518;-79
2023/05/19 11:02:40;;;;;;;5.00;3.97;;;;;;;31.66;31.95;98831.75;4925144;29;19915;-79
2023/05/19 11:05:08;;;;;;;6.85;4.30;;;;;;;31.59;31.38;98823.06;4957899;28;20351;-79
2023/05/19 11:07:33;;;;;;;8.88;4.18;;;;;;;31.54;31.71;98829.19;4941481;29;20514;-80
2023/05/19 11:09:59;;;;;;;6.35;4.47;;;;;;;31.45;31.45;98825.28;4909477;29;20541;-78
2023/05/19 11:12:24;;;;;;;6.10;3.97;;;;;;;31.39;31.93;98822.53;4924751;29;20066;-79
2023/05/19 11:14:53;;;;;;;5.55;4.05;;;;;;;31.26;31.87;98804.00;4909595;29;20039;-77
2023/05/19 11:17:22;;;;;;;5.15;3.50;;;;;;;31.09;32.18;98828.34;4905886;29;20063;-79
2023/05/19 11:19:55;;;;;;;5.78;4.20;;;;;;;30.97;32.30;98830.34;4937632;29;20035;-78
2023/05/19 11:22:25;;;;;;;6.45;4.18;;;;;;;30.97;32.03;98816.88;4940295;29;20043;-77
2023/05/19 11:24:53;;;;;;;7.25;4.18;;;;;;;30.94;32.61;98811.94;4920345;29;20043;-76
2023/05/19 11:27:32;;;;;;;7.13;3.80;;;;;;;30.91;32.54;98813.25;4921568;29;20047;-78
2023/05/19 11:29:58;;;;;;;5.85;3.90;;;;;;;30.90;32.29;98798.16;4924592;29;20107;-79
2023/05/19 11:32:32;;;;;;;7.68;3.97;;;;;;;30.80;32.41;98808.78;4956253;29;20067;-82
2023/05/19 11:34:57;;;;;;;8.60;4.40;;;;;;;30.77;32.47;98799.28;4940641;29;20035;-78